createdAt,value
2019-05-06T00:00:26.659Z,5.37
2019-05-06T00:02:56.084Z,5.34
2019-05-06T00:05:25.762Z,5.35
2019-05-06T00:07:55.204Z,5.35
2019-05-06T00:10:27.633Z,5.35
2019-05-06T00:12:57.846Z,5.34
2019-05-06T00:15:27.859Z,5.27
2019-05-06T00:17:57.405Z,5.28
2019-05-06T00:20:27.040Z,5.22
2019-05-06T00:22:58.104Z,5.19
2019-05-06T00:25:34.970Z,5.18
2019-05-06T00:28:24.585Z,5.19
2019-05-06T00:31:12.214Z,5.17
2019-05-06T00:33:29.824Z,5.22
2019-05-06T00:36:00.528Z,5.25
2019-05-06T00:38:30.119Z,5.28
2019-05-06T00:41:01.265Z,5.36
2019-05-06T00:43:30.654Z,5.42
2019-05-06T00:46:00.068Z,5.48
2019-05-06T00:48:29.485Z,5.45
2019-05-06T00:50:58.917Z,5.40
2019-05-06T00:53:30.130Z,5.40
2019-05-06T00:55:59.519Z,5.41
2019-05-06T00:58:28.954Z,5.41
2019-05-06T01:00:58.582Z,5.41
2019-05-06T01:03:28.058Z,5.42
2019-05-06T01:05:57.655Z,5.39
2019-05-06T01:08:27.226Z,5.40
2019-05-06T01:10:56.685Z,5.41
2019-05-06T01:13:36.874Z,5.43
2019-05-06T01:16:06.710Z,5.44
2019-05-06T01:18:36.147Z,5.38
2019-05-06T01:21:11.571Z,5.34
2019-05-06T01:23:43.895Z,5.31
2019-05-06T01:26:15.331Z,5.35
2019-05-06T01:28:45.698Z,5.36
2019-05-06T01:31:15.360Z,5.39
2019-05-06T01:33:45.395Z,5.41
2019-05-06T01:36:15.032Z,5.42
2019-05-06T01:38:46.354Z,5.50
2019-05-06T01:41:33.949Z,5.56
2019-05-06T01:44:04.231Z,5.58
2019-05-06T01:46:34.081Z,5.50
2019-05-06T01:49:04.284Z,5.48
2019-05-06T01:51:34.846Z,5.42
2019-05-06T01:54:04.524Z,5.36
2019-05-06T01:56:33.936Z,5.32
2019-05-06T01:59:04.569Z,5.35
2019-05-06T02:01:34.445Z,5.31
2019-05-06T02:04:04.449Z,5.31
2019-05-06T02:06:34.551Z,5.23
2019-05-06T02:09:06.201Z,5.17
2019-05-06T02:11:35.604Z,5.12
2019-05-06T02:14:05.011Z,5.09
2019-05-06T02:16:34.520Z,5.04
2019-05-06T02:19:04.315Z,5.03
2019-05-06T02:21:35.412Z,4.94
2019-05-06T02:24:06.548Z,4.88
2019-05-06T02:26:35.933Z,4.86
2019-05-06T02:29:07.158Z,4.83
2019-05-06T02:31:46.000Z,4.81
2019-05-06T02:34:36.358Z,4.73
2019-05-06T02:37:25.371Z,4.70
2019-05-06T02:39:53.946Z,4.60
2019-05-06T02:42:23.909Z,4.56
2019-05-06T02:44:54.339Z,4.58
2019-05-06T02:47:37.274Z,4.55
2019-05-06T02:50:13.357Z,4.50
2019-05-06T02:52:44.119Z,4.43
2019-05-06T02:55:14.157Z,4.36
2019-05-06T02:57:44.157Z,4.30
2019-05-06T03:00:27.731Z,4.25
2019-05-06T03:02:57.151Z,4.21
2019-05-06T03:05:26.547Z,4.20
2019-05-06T03:07:57.664Z,4.20
2019-05-06T03:10:27.078Z,4.21
2019-05-06T03:12:56.473Z,4.13
2019-05-06T03:15:25.878Z,4.10
2019-05-06T03:17:55.639Z,4.09
2019-05-06T03:20:59.797Z,4.07
2019-05-06T03:23:36.865Z,4.04
2019-05-06T03:26:06.963Z,3.93
2019-05-06T03:28:36.606Z,3.84
2019-05-06T03:31:07.723Z,3.77
2019-05-06T03:33:55.204Z,3.72
2019-05-06T03:36:22.728Z,3.67
2019-05-06T03:38:42.552Z,3.62
2019-05-06T03:41:13.643Z,3.60
2019-05-06T03:43:43.458Z,3.54
2019-05-06T03:46:14.501Z,3.53
2019-05-06T03:48:48.362Z,3.52
2019-05-06T03:51:17.756Z,3.46
2019-05-06T03:53:47.614Z,3.42
2019-05-06T03:56:19.851Z,3.43
2019-05-06T03:58:53.649Z,3.46
2019-05-06T04:01:24.048Z,3.52
2019-05-06T04:03:57.148Z,3.57
2019-05-06T04:06:24.870Z,3.72
2019-05-06T04:08:54.459Z,3.80
2019-05-06T04:11:24.601Z,3.77
2019-05-06T04:13:55.906Z,3.86
2019-05-06T04:16:38.613Z,3.91
2019-05-06T04:19:13.164Z,3.98
2019-05-06T04:21:47.017Z,4.08
2019-05-06T04:24:36.650Z,4.15
2019-05-06T04:27:26.117Z,4.21
2019-05-06T04:29:55.544Z,4.37
2019-05-06T04:32:25.008Z,4.51
2019-05-06T04:34:54.439Z,4.60
2019-05-06T04:37:24.571Z,4.57
2019-05-06T04:39:54.092Z,4.57
2019-05-06T04:42:27.011Z,4.63
2019-05-06T04:44:54.733Z,4.63
2019-05-06T04:47:24.467Z,4.72
2019-05-06T04:49:54.598Z,4.82
2019-05-06T04:52:26.010Z,4.97
2019-05-06T04:54:55.322Z,5.17
2019-05-06T04:57:24.814Z,5.31
2019-05-06T04:59:54.871Z,5.40
2019-05-06T05:02:24.319Z,5.48
2019-05-06T05:04:53.850Z,5.60
2019-05-06T05:07:23.260Z,5.64
2019-05-06T05:09:54.311Z,5.61
2019-05-06T05:12:25.349Z,5.62
2019-05-06T05:14:56.834Z,5.69
2019-05-06T05:17:32.975Z,5.62
2019-05-06T05:20:02.208Z,5.56
2019-05-06T05:22:32.555Z,5.68
2019-05-06T05:25:03.495Z,5.81
2019-05-06T05:27:33.383Z,6.07
2019-05-06T05:30:02.874Z,6.17
2019-05-06T05:32:33.195Z,6.06
2019-05-06T05:35:02.888Z,6.15
2019-05-06T05:37:32.845Z,6.30
2019-05-06T05:40:03.196Z,6.68
2019-05-06T05:42:38.940Z,7.07
2019-05-06T05:45:09.284Z,7.37
2019-05-06T05:47:38.837Z,7.58
2019-05-06T05:50:10.231Z,8.20
2019-05-06T05:52:39.687Z,8.46
2019-05-06T05:55:09.175Z,8.59
2019-05-06T05:57:38.574Z,8.43
2019-05-06T06:00:08.320Z,8.36
2019-05-06T06:02:37.713Z,8.26
2019-05-06T06:05:07.637Z,8.51
2019-05-06T06:07:37.269Z,8.68
2019-05-06T06:10:17.827Z,8.90
2019-05-06T06:12:47.393Z,8.78
2019-05-06T06:15:28.915Z,8.75
2019-05-06T06:18:02.458Z,8.91
2019-05-06T06:20:49.772Z,9.27
2019-05-06T06:23:35.617Z,9.44
2019-05-06T06:26:05.267Z,9.78
2019-05-06T06:28:34.673Z,10.09
2019-05-06T06:31:09.154Z,10.22
2019-05-06T06:33:38.628Z,10.46
2019-05-06T06:36:09.704Z,10.66
2019-05-06T06:38:46.511Z,10.78
2019-05-06T06:41:16.178Z,10.98
2019-05-06T06:43:47.282Z,11.26
2019-05-06T06:46:17.083Z,11.36
2019-05-06T06:48:46.482Z,11.57
2019-05-06T06:51:16.072Z,12.20
2019-05-06T06:53:45.522Z,13.02
2019-05-06T06:56:32.980Z,14.32
2019-05-06T06:59:13.410Z,14.89
2019-05-06T07:02:02.579Z,15.86
2019-05-06T07:04:38.979Z,15.04
2019-05-06T07:07:08.356Z,15.63
2019-05-06T07:09:37.847Z,15.50
2019-05-06T07:12:07.373Z,15.36
2019-05-06T07:14:36.805Z,14.98
2019-05-06T07:17:06.384Z,14.16
2019-05-06T07:19:37.464Z,13.84
2019-05-06T07:22:07.162Z,13.34
2019-05-06T07:24:36.646Z,12.95
2019-05-06T07:27:07.726Z,13.12
2019-05-06T07:29:37.153Z,13.10
2019-05-06T07:32:06.649Z,13.15
2019-05-06T07:34:36.051Z,13.28
2019-05-06T07:37:05.502Z,13.38
2019-05-06T07:39:34.911Z,13.71
2019-05-06T07:42:05.975Z,14.03
2019-05-06T07:44:55.724Z,13.93
2019-05-06T07:47:29.549Z,13.60
2019-05-06T07:49:59.023Z,13.62
2019-05-06T07:52:28.449Z,14.18
2019-05-06T07:54:57.854Z,14.18
2019-05-06T07:57:27.273Z,14.44
2019-05-06T07:59:56.750Z,14.68
2019-05-06T08:02:26.237Z,15.33
2019-05-06T08:04:56.035Z,15.69
2019-05-06T08:07:25.464Z,15.82
2019-05-06T08:09:54.867Z,16.77
2019-05-06T08:12:24.353Z,16.90
2019-05-06T08:14:53.764Z,17.18
2019-05-06T08:17:24.896Z,17.39
2019-05-06T08:19:54.294Z,16.71
2019-05-06T08:22:42.293Z,15.79
2019-05-06T08:25:12.275Z,15.10
2019-05-06T08:27:42.546Z,14.53
2019-05-06T08:30:13.017Z,14.35
2019-05-06T08:32:42.630Z,15.32
2019-05-06T08:35:14.153Z,16.88
2019-05-06T08:37:44.857Z,16.87
2019-05-06T08:40:15.309Z,15.77
2019-05-06T08:42:44.908Z,14.91
2019-05-06T08:45:14.557Z,14.17
2019-05-06T08:47:43.989Z,13.94
2019-05-06T08:50:32.510Z,13.39
2019-05-06T08:53:15.879Z,13.01
2019-05-06T08:55:46.933Z,12.41
2019-05-06T08:58:16.347Z,12.13
2019-05-06T09:00:47.388Z,11.96
2019-05-06T09:03:16.813Z,11.88
2019-05-06T09:05:54.996Z,11.86
2019-05-06T09:08:24.951Z,11.86
2019-05-06T09:10:54.430Z,11.93
2019-05-06T09:13:23.961Z,12.23
2019-05-06T09:15:53.350Z,12.49
2019-05-06T09:18:24.088Z,12.81
2019-05-06T09:20:53.780Z,14.00
2019-05-06T09:23:23.317Z,15.02
2019-05-06T09:25:53.336Z,17.37
2019-05-06T09:28:42.857Z,19.26
2019-05-06T09:31:13.960Z,19.38
2019-05-06T09:33:45.025Z,18.74
2019-05-06T09:36:14.429Z,17.26
2019-05-06T09:38:43.843Z,16.52
2019-05-06T09:41:13.234Z,15.25
2019-05-06T09:43:43.386Z,15.07
2019-05-06T09:46:13.086Z,14.47
2019-05-06T09:49:00.536Z,14.22
2019-05-06T09:51:32.373Z,14.01
2019-05-06T09:54:23.359Z,13.71
2019-05-06T09:56:53.541Z,13.07
2019-05-06T09:59:22.959Z,13.07
2019-05-06T10:01:52.914Z,13.01
2019-05-06T10:04:22.428Z,12.96
2019-05-06T10:06:57.179Z,13.44
2019-05-06T10:09:24.952Z,14.43
2019-05-06T10:11:54.218Z,16.70
2019-05-06T10:14:23.739Z,19.91
2019-05-06T10:16:53.143Z,22.91
2019-05-06T10:19:22.819Z,26.63
2019-05-06T10:21:53.068Z,28.32
2019-05-06T10:24:22.809Z,29.67
2019-05-06T10:26:53.847Z,32.03
2019-05-06T10:29:34.082Z,32.10
2019-05-06T10:32:12.051Z,32.38
2019-05-06T10:34:43.434Z,29.46
2019-05-06T10:37:28.773Z,25.45
2019-05-06T10:40:03.842Z,22.79
2019-05-06T10:42:36.300Z,20.20
2019-05-06T10:45:20.069Z,19.04
2019-05-06T10:47:49.474Z,17.60
2019-05-06T10:50:18.897Z,17.05
2019-05-06T10:53:07.736Z,16.67
2019-05-06T10:55:38.907Z,16.21
2019-05-06T10:58:08.346Z,15.81
2019-05-06T11:00:38.070Z,15.75
2019-05-06T11:03:14.389Z,17.26
2019-05-06T11:05:43.186Z,20.31
2019-05-06T11:08:12.182Z,23.27
2019-05-06T11:10:45.126Z,25.61
2019-05-06T11:13:13.086Z,26.95
2019-05-06T11:15:43.345Z,26.68
2019-05-06T11:18:13.694Z,26.91
2019-05-06T11:20:44.096Z,24.31
2019-05-06T11:23:14.422Z,23.71
2019-05-06T11:25:43.989Z,21.26
2019-05-06T11:28:35.017Z,19.64
2019-05-06T11:31:03.715Z,19.49
2019-05-06T11:33:42.547Z,18.29
2019-05-06T11:36:15.175Z,17.53
2019-05-06T11:38:44.768Z,17.19
2019-05-06T11:41:14.201Z,17.14
2019-05-06T11:43:43.609Z,16.74
2019-05-06T11:46:13.040Z,17.15
2019-05-06T11:48:43.273Z,20.18
2019-05-06T11:51:14.400Z,22.78
2019-05-06T11:53:43.818Z,25.63
2019-05-06T11:56:13.302Z,26.83
2019-05-06T11:58:44.339Z,27.00
2019-05-06T12:01:23.963Z,26.84
2019-05-06T12:03:53.390Z,25.95
2019-05-06T12:06:22.892Z,24.42
2019-05-06T12:08:52.603Z,21.45
2019-05-06T12:11:23.723Z,21.45
2019-05-06T12:13:53.516Z,20.42
2019-05-06T12:16:26.180Z,20.07
2019-05-06T12:18:54.355Z,19.82
2019-05-06T12:21:23.764Z,19.50
2019-05-06T12:23:53.726Z,18.60
2019-05-06T12:26:23.463Z,18.52
2019-05-06T12:28:53.360Z,18.23
2019-05-06T12:31:23.493Z,17.64
2019-05-06T12:33:53.530Z,17.49
2019-05-06T12:36:23.517Z,16.88
2019-05-06T12:39:16.099Z,16.70
2019-05-06T12:42:01.765Z,16.74
2019-05-06T12:44:32.805Z,16.62
2019-05-06T12:47:06.714Z,16.89
2019-05-06T12:49:36.106Z,17.54
2019-05-06T12:52:05.662Z,17.48
2019-05-06T12:54:35.043Z,17.59
2019-05-06T12:57:04.463Z,18.34
2019-05-06T12:59:33.869Z,18.49
2019-05-06T13:02:03.350Z,18.37
2019-05-06T13:04:49.505Z,18.03
2019-05-06T13:07:04.520Z,18.23
2019-05-06T13:09:33.970Z,18.33
2019-05-06T13:12:04.157Z,18.22
2019-05-06T13:14:33.629Z,18.78
2019-05-06T13:17:03.050Z,18.20
2019-05-06T13:19:35.717Z,18.03
2019-05-06T13:22:07.546Z,17.86
2019-05-06T13:24:36.956Z,18.17
2019-05-06T13:27:07.966Z,17.86
2019-05-06T13:29:37.354Z,17.24
2019-05-06T13:32:08.420Z,17.35
2019-05-06T13:34:37.858Z,16.59
2019-05-06T13:37:07.481Z,16.38
2019-05-06T13:39:37.004Z,16.56
2019-05-06T13:42:06.528Z,16.64
2019-05-06T13:44:35.952Z,16.21
2019-05-06T13:47:07.078Z,15.99
2019-05-06T13:49:38.114Z,15.92
2019-05-06T13:52:08.576Z,16.29
2019-05-06T13:54:38.098Z,16.35
2019-05-06T13:57:07.536Z,16.63
2019-05-06T13:59:37.355Z,16.48
2019-05-06T14:02:17.994Z,16.72
2019-05-06T14:04:47.395Z,16.61
2019-05-06T14:07:16.842Z,16.90
2019-05-06T14:09:46.216Z,16.63
2019-05-06T14:12:15.631Z,17.01
2019-05-06T14:14:45.030Z,17.45
2019-05-06T14:17:14.500Z,17.71
2019-05-06T14:19:43.981Z,17.00
2019-05-06T14:22:13.381Z,17.06
2019-05-06T14:24:44.445Z,16.82
2019-05-06T14:27:15.481Z,16.79
2019-05-06T14:29:46.549Z,16.25
2019-05-06T14:32:15.935Z,15.49
2019-05-06T14:34:45.398Z,15.97
2019-05-06T14:37:14.754Z,15.98
2019-05-06T14:39:53.650Z,15.95
2019-05-06T14:42:17.043Z,15.93
2019-05-06T14:44:46.463Z,15.81
2019-05-06T14:47:17.499Z,15.61
2019-05-06T14:49:46.917Z,15.56
2019-05-06T14:52:16.313Z,15.42
2019-05-06T14:54:50.339Z,15.44
2019-05-06T14:57:22.594Z,15.37
2019-05-06T14:59:55.240Z,15.11
2019-05-06T15:02:26.397Z,15.06
2019-05-06T15:04:55.604Z,15.05
2019-05-06T15:07:25.007Z,14.92
2019-05-06T15:10:07.894Z,14.96
2019-05-06T15:12:25.534Z,14.99
2019-05-06T15:14:54.956Z,15.05
2019-05-06T15:17:24.373Z,15.03
2019-05-06T15:19:53.783Z,15.18
2019-05-06T15:22:23.302Z,15.19
2019-05-06T15:24:53.798Z,15.19
2019-05-06T15:27:23.460Z,15.34
2019-05-06T15:29:55.379Z,15.44
2019-05-06T15:32:26.422Z,15.64
2019-05-06T15:35:02.607Z,15.62
2019-05-06T15:37:48.330Z,15.61
2019-05-06T15:40:31.131Z,15.66
2019-05-06T15:42:49.494Z,15.54
2019-05-06T15:45:19.290Z,15.66
2019-05-06T15:47:48.707Z,15.56
2019-05-06T15:50:18.874Z,15.44
2019-05-06T15:52:48.362Z,15.38
2019-05-06T15:55:17.927Z,15.33
2019-05-06T15:57:47.329Z,15.27
2019-05-06T16:00:18.936Z,15.15
2019-05-06T16:02:48.510Z,14.93
2019-05-06T16:05:20.133Z,14.78
2019-05-06T16:07:49.380Z,14.81
2019-05-06T16:10:19.038Z,14.82
2019-05-06T16:12:49.199Z,14.74
2019-05-06T16:15:18.836Z,14.69
2019-05-06T16:17:48.261Z,14.57
2019-05-06T16:20:17.732Z,14.63
2019-05-06T16:22:48.771Z,14.59
2019-05-06T16:25:18.220Z,14.64
2019-05-06T16:27:52.267Z,14.60
2019-05-06T16:30:24.138Z,14.52
2019-05-06T16:32:52.778Z,14.41
2019-05-06T16:35:22.935Z,14.30
2019-05-06T16:37:52.869Z,14.36
2019-05-06T16:40:23.315Z,14.18
2019-05-06T16:42:54.226Z,14.16
2019-05-06T16:45:24.078Z,14.05
2019-05-06T16:47:53.669Z,13.95
2019-05-06T16:50:23.510Z,13.96
2019-05-06T16:52:53.005Z,13.89
2019-05-06T16:55:24.890Z,13.80
2019-05-06T16:57:55.970Z,13.79
2019-05-06T17:00:27.237Z,13.75
2019-05-06T17:03:04.307Z,13.72
2019-05-06T17:05:35.353Z,13.67
2019-05-06T17:08:04.776Z,13.64
2019-05-06T17:10:34.171Z,13.48
2019-05-06T17:13:03.584Z,13.51
2019-05-06T17:15:32.995Z,13.41
2019-05-06T17:18:03.069Z,13.37
2019-05-06T17:20:33.014Z,13.29
2019-05-06T17:23:03.071Z,13.23
2019-05-06T17:25:33.683Z,13.16
2019-05-06T17:28:22.224Z,13.09
2019-05-06T17:31:13.200Z,13.02
2019-05-06T17:33:44.380Z,12.98
2019-05-06T17:36:15.417Z,12.91
2019-05-06T17:38:46.491Z,12.85
2019-05-06T17:41:16.052Z,12.78
2019-05-06T17:43:45.578Z,12.69
2019-05-06T17:46:22.369Z,12.58
2019-05-06T17:48:53.523Z,12.56
2019-05-06T17:51:33.395Z,12.51
2019-05-06T17:54:03.538Z,12.43
2019-05-06T17:56:33.011Z,12.37
2019-05-06T17:59:03.146Z,12.27
2019-05-06T18:01:42.063Z,12.19
2019-05-06T18:04:12.605Z,12.10
2019-05-06T18:06:42.568Z,12.01
2019-05-06T18:09:12.813Z,11.96
2019-05-06T18:11:51.174Z,11.92
2019-05-06T18:14:13.654Z,11.85
2019-05-06T18:16:43.034Z,11.76
2019-05-06T18:19:12.721Z,11.72
2019-05-06T18:21:42.437Z,11.64
2019-05-06T18:24:13.520Z,11.65
2019-05-06T18:26:42.915Z,11.57
2019-05-06T18:29:12.666Z,11.57
2019-05-06T18:31:42.883Z,11.54
2019-05-06T18:34:12.891Z,11.55
2019-05-06T18:36:43.070Z,11.54
2019-05-06T18:39:12.837Z,11.55
2019-05-06T18:41:42.306Z,11.54
2019-05-06T18:44:12.068Z,11.64
2019-05-06T18:46:42.136Z,11.63
2019-05-06T18:49:13.066Z,11.58
2019-05-06T18:51:42.934Z,11.48
2019-05-06T18:54:12.586Z,11.50
2019-05-06T18:56:42.989Z,11.41
2019-05-06T18:59:12.508Z,11.35
2019-05-06T19:01:43.352Z,11.30
2019-05-06T19:04:14.582Z,11.26
2019-05-06T19:06:43.967Z,11.21
2019-05-06T19:09:24.030Z,11.18
2019-05-06T19:11:54.497Z,11.13
2019-05-06T19:14:24.138Z,11.13
2019-05-06T19:16:55.336Z,11.12
2019-05-06T19:19:24.859Z,11.09
2019-05-06T19:21:55.779Z,11.05
2019-05-06T19:24:26.750Z,11.01
2019-05-06T19:26:56.178Z,11.02
2019-05-06T19:29:25.582Z,10.89
2019-05-06T19:31:55.019Z,10.84
2019-05-06T19:34:24.418Z,10.81
2019-05-06T19:36:53.847Z,10.76
2019-05-06T19:39:23.389Z,10.69
2019-05-06T19:41:52.796Z,10.72
2019-05-06T19:44:22.249Z,10.66
2019-05-06T19:46:53.249Z,10.57
2019-05-06T19:49:23.925Z,10.47
2019-05-06T19:51:53.468Z,10.36
2019-05-06T19:54:22.880Z,10.29
2019-05-06T19:56:52.835Z,10.20
2019-05-06T19:59:22.397Z,10.11
2019-05-06T20:01:52.443Z,10.03
2019-05-06T20:04:22.819Z,9.99
2019-05-06T20:06:56.462Z,9.98
2019-05-06T20:12:17.722Z,9.91
2019-05-06T20:14:47.112Z,9.90
2019-05-06T20:17:16.520Z,9.90
2019-05-06T20:19:45.928Z,9.93
2019-05-06T20:22:16.930Z,9.88
2019-05-06T20:24:48.366Z,9.84
2019-05-06T20:27:17.789Z,9.83
2019-05-06T20:29:47.172Z,9.76
2019-05-06T20:32:16.590Z,9.75
2019-05-06T20:34:45.984Z,9.78
2019-05-06T20:37:15.397Z,9.77
2019-05-06T20:39:44.846Z,9.72
2019-05-06T20:42:14.293Z,9.70
2019-05-06T20:44:43.660Z,9.70
2019-05-06T20:47:13.298Z,9.69
2019-05-06T20:49:43.248Z,9.64
2019-05-06T20:52:12.935Z,9.57
2019-05-06T20:54:42.797Z,9.46
2019-05-06T20:57:12.554Z,9.38
2019-05-06T20:59:42.217Z,9.30
2019-05-06T21:02:12.511Z,9.26
2019-05-06T21:04:43.180Z,9.21
2019-05-06T21:07:12.698Z,9.21
2019-05-06T21:09:43.162Z,9.19
2019-05-06T21:12:12.789Z,9.15
2019-05-06T21:14:42.285Z,9.12
2019-05-06T21:17:12.428Z,9.06
2019-05-06T21:19:41.958Z,8.96
2019-05-06T21:22:13.247Z,8.87
2019-05-06T21:24:43.126Z,8.79
2019-05-06T21:27:12.760Z,8.73
2019-05-06T21:29:42.187Z,8.70
2019-05-06T21:32:11.659Z,8.64
2019-05-06T21:34:43.159Z,8.63
2019-05-06T21:37:12.382Z,8.59
2019-05-06T21:39:42.374Z,8.54
2019-05-06T21:42:12.245Z,8.42
2019-05-06T21:44:42.947Z,8.29
2019-05-06T21:47:12.439Z,8.16
2019-05-06T21:49:42.268Z,8.15
2019-05-06T21:52:13.134Z,8.17
2019-05-06T21:54:43.416Z,8.13
2019-05-06T21:57:12.988Z,8.05
2019-05-06T21:59:42.844Z,8.05
2019-05-06T22:02:13.885Z,8.03
2019-05-06T22:04:43.455Z,7.99
2019-05-06T22:07:12.859Z,8.02
2019-05-06T22:09:43.011Z,8.05
2019-05-06T22:12:12.654Z,7.99
2019-05-06T22:14:42.330Z,7.93
2019-05-06T22:17:13.943Z,7.90
2019-05-06T22:19:42.951Z,7.90
2019-05-06T22:22:14.684Z,7.91
2019-05-06T22:24:45.041Z,7.90
2019-05-06T22:27:15.200Z,7.88
2019-05-06T22:29:44.670Z,7.86
2019-05-06T22:32:15.011Z,7.83
2019-05-06T22:34:44.568Z,7.88
2019-05-06T22:37:14.135Z,7.82
2019-05-06T22:39:43.845Z,7.84
2019-05-06T22:42:13.322Z,7.83
2019-05-06T22:44:43.065Z,7.79
2019-05-06T22:47:12.555Z,7.88
2019-05-06T22:49:42.071Z,7.83
2019-05-06T22:52:12.577Z,7.84
2019-05-06T22:54:43.322Z,7.83
2019-05-06T22:57:13.031Z,7.85
2019-05-06T22:59:42.861Z,7.88
2019-05-06T23:02:13.962Z,7.88
2019-05-06T23:04:44.995Z,7.89
2019-05-06T23:07:14.492Z,7.88
2019-05-06T23:09:43.886Z,7.91
2019-05-06T23:12:13.290Z,7.86
2019-05-06T23:14:42.729Z,7.83
2019-05-06T23:17:12.810Z,7.82
2019-05-06T23:19:42.821Z,7.81
2019-05-06T23:22:12.411Z,7.74
2019-05-06T23:24:41.799Z,7.77
2019-05-06T23:27:12.626Z,7.80
2019-05-06T23:29:42.543Z,7.81
2019-05-06T23:32:14.066Z,7.79
2019-05-06T23:34:43.527Z,7.68
2019-05-06T23:37:15.961Z,7.72
2019-05-06T23:40:22.249Z,7.76
2019-05-06T23:43:28.933Z,7.78
2019-05-06T23:46:34.536Z,7.80
2019-05-06T23:49:42.240Z,7.81
2019-05-06T23:52:48.307Z,7.84
2019-05-06T23:55:54.190Z,7.90
2019-05-06T23:58:22.606Z,7.90
